Jacksonville, Vermont
Current Conditions -  °F | °C
As of 12:52 AM on Wednesday 26 Nov 2014 (Local Time) from KAQW Reporting Station
Clear Clear  
Wind Chill: 32°   Ceiling: Unl
Heat Index: 39°   Visibility: 10mi
Dew Point: 27°   Wind: 12mph
Humidity: 62%   Direction: 270°W
Pressure: 30.15"   Gusts: NA
Location:  42.8°N, 72.82°W
Report Text: KAQW 260552Z AUTO 27010KT 10SM CLR 04/M03 A3015 RMK AO2 SLP215 T00391028 10061 21006 51021
Loading
Personal Weather Stations






























Interactive Weather Map New forecast layout! Learn more

10-Day Weather Forecast

Advertisements
Track Severe Weather on mobile